Time;durP1;ratioP1;P1;durP2;ratioP2;P2;SDS_P1;SDS_P2;PMS_P1;PMS_P2;Temp;Humidity;BMP_temperature;BMP_pressure;BME280_temperature;BME280_humidity;BME280_pressure;Samples;Min_cycle;Max_cycle;Signal;HPM_P1;HPM_P2
2024/04/14 00:00:21;;;;;;;14.45;7.45;;;;;;;12.73;77.29;99135.03;4958653;28;102887;-74
2024/04/14 00:02:47;;;;;;;11.63;7.22;;;;;;;12.84;76.09;99136.50;4943080;28;102716;-74
2024/04/14 00:05:12;;;;;;;16.98;9.15;;;;;;;12.50;77.53;99126.97;4959330;28;103323;-74
2024/04/14 00:07:38;;;;;;;14.55;9.02;;;;;;;12.54;77.70;99130.13;4957029;28;103244;-75
2024/04/14 00:10:04;;;;;;;13.18;7.47;;;;;;;12.79;76.56;99122.88;4956352;28;102683;-74
2024/04/14 00:12:30;;;;;;;22.08;8.85;;;;;;;12.59;77.21;99130.44;4960306;28;102860;-74
2024/04/14 00:14:55;;;;;;;14.00;7.97;;;;;;;12.76;75.69;99112.63;4957654;28;105426;-74
2024/04/14 00:17:21;;;;;;;12.88;6.57;;;;;;;12.82;74.97;99124.38;4961033;28;103256;-74
2024/04/14 00:19:52;;;;;;;17.35;9.10;;;;;;;12.50;76.31;99124.31;4941405;28;102813;-74
2024/04/14 00:22:18;;;;;;;10.75;6.95;;;;;;;12.59;76.55;99114.50;4960233;28;103480;-74
2024/04/14 00:24:46;;;;;;;12.48;8.05;;;;;;;12.38;77.31;99115.88;4941248;28;103216;-74
2024/04/14 00:27:12;;;;;;;15.55;8.40;;;;;;;12.46;76.64;99111.53;4958164;28;103082;-75
2024/04/14 00:29:38;;;;;;;10.60;6.72;;;;;;;12.42;77.31;99103.09;4958078;28;102755;-74
2024/04/14 00:32:04;;;;;;;15.27;7.55;;;;;;;12.50;76.42;99110.19;4928235;28;102805;-74
2024/04/14 00:34:30;;;;;;;17.90;8.15;;;;;;;12.16;77.79;99105.97;4957076;28;103560;-74
2024/04/14 00:36:55;;;;;;;13.88;8.48;;;;;;;12.31;77.36;99098.94;4959698;28;103195;-75
2024/04/14 00:39:22;;;;;;;11.48;7.60;;;;;;;12.29;77.56;99106.28;4958726;28;102733;-74
2024/04/14 00:41:48;;;;;;;10.95;6.30;;;;;;;12.61;75.64;99101.84;4974453;28;102892;-74
2024/04/14 00:44:13;;;;;;;13.40;7.65;;;;;;;12.73;74.66;99097.84;4939570;28;105343;-74
2024/04/14 00:46:39;;;;;;;11.90;7.25;;;;;;;12.82;73.83;99095.13;4961262;28;103198;-74
2024/04/14 00:49:08;;;;;;;15.52;8.07;;;;;;;12.68;73.75;99092.22;4956231;28;102763;-74
2024/04/14 00:51:35;;;;;;;10.88;6.55;;;;;;;12.66;74.10;99096.84;4959061;28;102887;-74
2024/04/14 00:54:01;;;;;;;14.55;7.97;;;;;;;12.63;74.08;99097.22;4945014;28;105431;-74
2024/04/14 00:56:27;;;;;;;11.27;6.50;;;;;;;12.69;73.20;99098.34;4960984;28;103246;-74
2024/04/14 00:58:53;;;;;;;16.38;8.43;;;;;;;12.38;74.95;99099.94;4956723;28;105160;-74
2024/04/14 01:01:20;;;;;;;17.75;9.20;;;;;;;11.89;77.64;99099.97;4967328;28;102889;-74
2024/04/14 01:03:46;;;;;;;15.65;7.80;;;;;;;12.02;77.28;99094.19;4949082;28;103455;-74
2024/04/14 01:06:12;;;;;;;11.05;6.32;;;;;;;12.19;76.11;99095.00;4957882;28;106705;-74
2024/04/14 01:08:37;;;;;;;11.68;7.18;;;;;;;12.35;75.01;99092.28;4942094;28;102783;-74
2024/04/14 01:11:06;;;;;;;11.52;6.53;;;;;;;12.19;76.10;99095.81;4959828;28;102893;-74
2024/04/14 01:13:32;;;;;;;10.23;6.72;;;;;;;12.24;75.59;99095.31;4961989;28;105493;-74
2024/04/14 01:15:58;;;;;;;12.38;5.57;;;;;;;12.34;74.82;99095.13;4945162;28;103176;-74
2024/04/14 01:18:23;;;;;;;13.50;6.90;;;;;;;12.21;75.88;99091.19;4958716;28;102743;-74
2024/04/14 01:20:49;;;;;;;11.25;6.57;;;;;;;12.32;74.68;99099.78;4959968;28;102842;-74
2024/04/14 01:23:15;;;;;;;12.02;7.18;;;;;;;12.25;74.77;99091.69;4962261;28;103600;-74
2024/04/14 01:25:43;;;;;;;12.50;6.15;;;;;;;12.30;74.43;99094.66;4948029;28;105329;-74
2024/04/14 01:28:09;;;;;;;9.57;5.80;;;;;;;12.38;73.56;99089.31;4965062;28;102929;-75
2024/04/14 01:30:37;;;;;;;13.18;7.07;;;;;;;12.14;74.74;99086.72;4945504;28;102849;-75
2024/04/14 01:33:02;;;;;;;14.70;7.50;;;;;;;12.00;75.27;99086.41;4957325;28;106158;-74
2024/04/14 01:35:30;;;;;;;9.55;6.50;;;;;;;11.47;77.80;99085.03;4927630;28;106073;-75
2024/04/14 01:37:56;;;;;;;14.00;7.50;;;;;;;11.40;78.92;99090.19;4959943;28;102700;-74
2024/04/14 01:40:24;;;;;;;13.95;7.05;;;;;;;11.39;78.73;99091.97;4948406;28;102876;-74
2024/04/14 01:42:50;;;;;;;12.52;5.88;;;;;;;11.70;77.83;99091.34;4943117;28;106157;-74
2024/04/14 01:45:16;;;;;;;11.27;6.43;;;;;;;11.62;78.09;99099.31;4958214;28;105469;-75
2024/04/14 01:47:42;;;;;;;9.30;5.50;;;;;;;11.70;77.39;99086.03;4964922;28;102732;-74
2024/04/14 01:50:08;;;;;;;12.95;7.07;;;;;;;11.69;76.90;99100.31;4945934;28;102752;-74
2024/04/14 01:52:33;;;;;;;11.32;6.43;;;;;;;11.81;76.26;99087.53;4960496;28;103263;-75
2024/04/14 01:55:01;;;;;;;12.02;5.95;;;;;;;11.91;76.40;99090.03;4956113;28;103175;-74
2024/04/14 01:57:27;;;;;;;13.40;6.38;;;;;;;12.00;75.82;99085.56;4959492;28;102915;-74
2024/04/14 01:59:52;;;;;;;13.68;6.18;;;;;;;11.86;76.34;99093.16;4957885;28;102745;-74
2024/04/14 02:02:18;;;;;;;11.85;6.40;;;;;;;11.88;76.46;99093.00;4961797;28;103517;-75
2024/04/14 02:04:44;;;;;;;15.75;6.75;;;;;;;11.89;75.87;99095.47;4958827;28;103710;-74
2024/04/14 02:07:09;;;;;;;9.98;4.78;;;;;;;12.14;74.98;99081.41;4948179;28;103445;-74
2024/04/14 02:09:35;;;;;;;8.02;4.68;;;;;;;12.27;73.72;99092.31;4944043;28;102871;-75
2024/04/14 02:12:03;;;;;;;11.73;6.05;;;;;;;12.19;74.54;99087.03;4945809;28;103427;-74
2024/04/14 02:14:28;;;;;;;12.32;5.53;;;;;;;11.91;75.33;99092.69;4944785;28;103912;-74
2024/04/14 02:16:56;;;;;;;12.90;5.97;;;;;;;11.67;76.31;99081.09;4957180;28;102867;-74
2024/04/14 02:19:22;;;;;;;11.88;5.13;;;;;;;11.88;75.68;99093.00;4941372;28;103083;-74
2024/04/14 02:21:48;;;;;;;9.70;5.22;;;;;;;11.67;76.73;99086.38;4931391;28;106217;-74
2024/04/14 02:24:13;;;;;;;8.13;4.82;;;;;;;11.96;75.23;99074.47;4956453;28;103399;-75
2024/04/14 02:26:39;;;;;;;9.98;5.57;;;;;;;11.63;76.19;99074.44;4962016;28;102831;-74
2024/04/14 02:29:07;;;;;;;9.38;4.93;;;;;;;11.84;75.44;99070.44;4941254;28;102860;-74
2024/04/14 02:31:34;;;;;;;8.15;5.03;;;;;;;11.95;74.67;99064.84;4961593;28;103470;-74
2024/04/14 02:34:00;;;;;;;10.90;4.80;;;;;;;11.91;74.84;99064.31;4939247;28;105569;-75
2024/04/14 02:36:27;;;;;;;11.18;5.47;;;;;;;11.73;75.78;99076.94;4946841;28;103091;-74
2024/04/14 02:38:54;;;;;;;14.45;5.30;;;;;;;11.76;75.34;99082.75;4958733;28;102682;-74
2024/04/14 02:41:19;;;;;;;7.22;4.00;;;;;;;11.86;74.74;99066.63;4940656;28;103156;-74
2024/04/14 02:43:45;;;;;;;9.25;4.82;;;;;;;11.87;73.89;99072.75;4955729;28;105822;-74
2024/04/14 02:46:11;;;;;;;8.60;4.72;;;;;;;11.89;73.52;99068.94;4957960;28;102929;-74
2024/04/14 02:48:37;;;;;;;7.13;4.32;;;;;;;11.66;75.04;99073.25;4942512;28;104249;-74
2024/04/14 02:51:03;;;;;;;9.07;4.50;;;;;;;11.61;74.96;99071.94;4959716;28;103313;-74
2024/04/14 02:53:29;;;;;;;7.50;4.43;;;;;;;11.52;75.61;99066.81;4948581;28;105538;-74
2024/04/14 02:55:55;;;;;;;9.63;5.38;;;;;;;11.54;74.59;99068.31;4956362;28;102890;-75
2024/04/14 02:58:21;;;;;;;8.15;4.18;;;;;;;11.67;74.07;99065.16;4956614;28;102921;-74
2024/04/14 03:00:47;;;;;;;8.68;4.47;;;;;;;11.50;74.89;99064.34;4956574;28;103415;-75
2024/04/14 03:03:12;;;;;;;14.05;5.40;;;;;;;11.19;75.74;99058.81;4955679;28;105573;-75
2024/04/14 03:05:39;;;;;;;9.02;4.53;;;;;;;11.52;74.81;99062.31;4957977;28;102875;-74
2024/04/14 03:08:08;;;;;;;8.98;4.80;;;;;;;11.40;74.21;99064.47;4951854;28;102876;-74
2024/04/14 03:10:34;;;;;;;6.65;3.90;;;;;;;11.42;75.52;99072.25;4950602;28;103567;-74
2024/04/14 03:13:00;;;;;;;7.50;4.60;;;;;;;11.32;75.14;99064.47;4939432;28;106104;-74
2024/04/14 03:15:26;;;;;;;12.77;5.20;;;;;;;11.06;76.32;99067.25;4939577;28;103001;-74
2024/04/14 03:17:52;;;;;;;8.98;4.32;;;;;;;11.27;75.94;99061.47;4937444;28;102785;-74
2024/04/14 03:20:17;;;;;;;7.95;4.30;;;;;;;11.34;75.45;99065.13;4943766;28;103720;-74
2024/04/14 03:22:43;;;;;;;8.02;4.30;;;;;;;11.40;74.82;99068.97;4942735;28;105457;-74
2024/04/14 03:25:11;;;;;;;12.77;4.43;;;;;;;11.48;74.50;99065.50;4965837;28;102565;-74
2024/04/14 03:27:37;;;;;;;8.60;4.60;;;;;;;11.28;75.49;99063.16;4960620;28;102922;-74
2024/04/14 03:30:03;;;;;;;8.15;4.68;;;;;;;11.36;75.59;99067.63;4958026;28;104388;-74
2024/04/14 03:32:31;;;;;;;6.50;3.88;;;;;;;11.56;74.00;99068.13;4940918;28;103292;-74
2024/04/14 03:34:56;;;;;;;8.52;4.65;;;;;;;11.42;73.63;99067.81;4965083;28;102944;-75
2024/04/14 03:37:22;;;;;;;6.03;3.70;;;;;;;11.33;74.79;99071.44;4961970;28;102966;-74
2024/04/14 03:39:48;;;;;;;9.90;4.10;;;;;;;11.36;74.63;99067.63;4942639;28;103171;-75
2024/04/14 03:42:13;;;;;;;8.52;4.60;;;;;;;11.33;74.40;99063.50;4966049;28;103211;-75
2024/04/14 03:44:44;;;;;;;8.27;3.47;;;;;;;11.44;74.27;99060.50;4960830;28;102676;-74
2024/04/14 03:47:10;;;;;;;8.43;3.50;;;;;;;11.40;74.12;99066.31;4960515;28;102832;-75
2024/04/14 03:49:35;;;;;;;6.10;3.40;;;;;;;11.44;73.83;99065.81;4955751;28;103186;-75
2024/04/14 03:52:04;;;;;;;5.57;3.38;;;;;;;11.30;74.87;99062.97;4935517;28;105170;-75
2024/04/14 03:54:30;;;;;;;9.75;3.58;;;;;;;11.28;74.51;99057.84;4942168;28;103028;-74
2024/04/14 03:56:56;;;;;;;6.85;3.47;;;;;;;11.28;74.44;99055.19;4959960;28;105824;-74
2024/04/14 03:59:21;;;;;;;6.57;3.53;;;;;;;11.24;74.26;99064.44;4963500;28;105924;-75
2024/04/14 04:01:47;;;;;;;6.28;3.58;;;;;;;11.18;74.88;99059.81;4961667;28;103701;-74
2024/04/14 04:04:13;;;;;;;8.57;3.72;;;;;;;11.34;73.62;99069.59;4968655;28;102952;-74
2024/04/14 04:06:39;;;;;;;6.20;2.90;;;;;;;11.27;74.33;99069.44;4958373;28;102882;-75
2024/04/14 04:09:06;;;;;;;5.22;3.33;;;;;;;10.98;75.79;99076.00;4957981;28;103204;-75
2024/04/14 04:11:32;;;;;;;6.50;3.50;;;;;;;11.20;74.25;99084.31;4958747;28;106076;-73
2024/04/14 04:13:58;;;;;;;6.63;3.00;;;;;;;11.29;73.93;99078.03;4963054;28;102966;-73
2024/04/14 04:16:24;;;;;;;6.03;3.03;;;;;;;11.30;73.31;99077.06;4963000;28;102882;-73
2024/04/14 04:18:52;;;;;;;5.88;3.50;;;;;;;11.38;72.85;99074.41;4955516;28;102816;-73
2024/04/14 04:21:18;;;;;;;6.05;3.13;;;;;;;10.80;76.13;99083.25;4961284;28;103391;-73
2024/04/14 04:23:46;;;;;;;5.60;3.47;;;;;;;10.97;74.89;99079.63;4959953;28;102833;-73
2024/04/14 04:26:12;;;;;;;4.38;2.95;;;;;;;10.93;75.05;99080.97;4945613;28;102805;-73
2024/04/14 04:28:37;;;;;;;7.75;3.40;;;;;;;11.11;74.39;99086.16;4947354;28;106454;-75
2024/04/14 04:31:14;;;;;;;8.23;4.22;;;;;;;11.02;74.19;99077.34;4938957;28;103712;-73
2024/04/14 04:33:40;;;;;;;8.18;4.15;;;;;;;10.94;75.04;99075.50;4943685;28;105289;-73
2024/04/14 04:36:05;;;;;;;6.50;3.90;;;;;;;11.00;74.33;99081.97;4954549;28;102893;-73
2024/04/14 04:38:31;;;;;;;8.45;4.40;;;;;;;10.29;76.99;99081.31;4956454;28;103297;-73
2024/04/14 04:40:57;;;;;;;8.02;3.88;;;;;;;10.54;77.03;99084.13;4938659;28;103194;-73
2024/04/14 04:43:23;;;;;;;7.85;3.30;;;;;;;10.85;75.30;99086.25;4940279;28;102892;-73
2024/04/14 04:45:52;;;;;;;8.18;4.60;;;;;;;10.32;77.24;99080.97;4956092;28;103080;-73
2024/04/14 04:48:20;;;;;;;8.23;3.97;;;;;;;10.35;77.90;99083.38;4954645;28;103505;-73
2024/04/14 04:50:46;;;;;;;5.70;3.10;;;;;;;10.71;76.21;99085.00;4936382;28;105927;-73
2024/04/14 04:53:16;;;;;;;5.88;3.67;;;;;;;10.58;76.82;99086.28;4960037;28;104048;-73
2024/04/14 04:55:42;;;;;;;6.38;2.97;;;;;;;10.85;75.39;99086.25;4955195;28;102778;-73
2024/04/14 04:58:08;;;;;;;6.57;3.67;;;;;;;10.97;74.72;99084.94;4952507;28;104372;-73
2024/04/14 05:00:33;;;;;;;6.22;3.60;;;;;;;11.05;74.05;99082.31;4958299;28;103142;-73
2024/04/14 05:02:59;;;;;;;3.95;2.60;;;;;;;11.08;74.08;99091.75;4955528;28;102780;-73
2024/04/14 05:05:25;;;;;;;6.95;3.75;;;;;;;11.16;73.51;99086.50;4939399;28;103684;-73
2024/04/14 05:07:53;;;;;;;8.63;4.50;;;;;;;11.16;73.75;99083.00;4957859;28;103497;-73
2024/04/14 05:10:19;;;;;;;9.77;4.50;;;;;;;10.71;75.89;99085.84;4955689;28;104416;-73
2024/04/14 05:12:47;;;;;;;8.60;4.32;;;;;;;10.91;75.97;99090.88;4955345;28;102841;-73
2024/04/14 05:15:12;;;;;;;10.27;4.90;;;;;;;10.48;78.13;99092.69;4955798;28;102834;-73
2024/04/14 05:17:38;;;;;;;6.32;3.60;;;;;;;10.92;76.76;99092.53;4934413;28;102773;-73
2024/04/14 05:20:04;;;;;;;6.35;3.63;;;;;;;11.18;75.50;99096.94;4937869;28;103168;-73
2024/04/14 05:22:30;;;;;;;8.00;4.57;;;;;;;10.78;77.40;99097.47;4939505;28;102663;-73
2024/04/14 05:24:55;;;;;;;9.25;4.93;;;;;;;11.15;76.09;99099.88;4938256;28;102935;-71
2024/04/14 05:27:21;;;;;;;8.38;4.05;;;;;;;11.28;75.89;99105.56;4940833;28;103181;-72
2024/04/14 05:29:47;;;;;;;7.25;3.90;;;;;;;10.98;78.14;99109.59;4939886;28;103434;-74
2024/04/14 05:32:13;;;;;;;7.22;4.18;;;;;;;11.35;76.29;99108.41;4941783;28;103157;-73
2024/04/14 05:34:39;;;;;;;9.57;4.40;;;;;;;11.57;75.29;99106.94;4955702;28;102767;-72
2024/04/14 05:37:04;;;;;;;6.03;3.70;;;;;;;11.72;74.39;99105.28;4955380;28;104499;-71
2024/04/14 05:39:34;;;;;;;7.53;3.35;;;;;;;12.02;73.73;99123.38;4955637;28;103997;-70
2024/04/14 05:42:00;;;;;;;10.32;4.03;;;;;;;12.05;73.77;99115.94;4937074;28;103799;-69
2024/04/14 05:44:25;;;;;;;6.93;4.53;;;;;;;12.04;73.88;99119.56;4928488;28;102856;-73
2024/04/14 05:46:51;;;;;;;7.55;3.70;;;;;;;12.19;73.45;99122.38;4960286;28;103282;-71
2024/04/14 05:49:20;;;;;;;10.30;4.85;;;;;;;12.32;73.47;99116.53;4958780;28;103293;-68
2024/04/14 05:51:49;;;;;;;7.63;3.95;;;;;;;12.53;72.95;99116.00;4960056;28;102891;-71
2024/04/14 05:54:15;;;;;;;8.30;4.28;;;;;;;12.66;72.54;99118.13;4954192;28;102726;-69
2024/04/14 05:56:41;;;;;;;9.02;4.32;;;;;;;12.68;72.09;99120.59;4955331;28;103656;-70
2024/04/14 05:59:09;;;;;;;7.60;4.47;;;;;;;12.65;72.67;99115.63;4953241;28;103500;-71
2024/04/14 06:01:35;;;;;;;6.95;4.15;;;;;;;12.73;72.77;99121.75;4935277;28;102819;-70
2024/04/14 06:04:01;;;;;;;12.43;5.00;;;;;;;12.93;72.08;99124.00;4948190;28;102908;-71
2024/04/14 06:06:26;;;;;;;8.15;4.18;;;;;;;12.98;72.06;99120.81;4955324;28;106324;-71
2024/04/14 06:08:54;;;;;;;9.15;4.47;;;;;;;13.06;71.81;99118.97;4923947;28;105277;-71
2024/04/14 06:11:20;;;;;;;6.70;3.70;;;;;;;13.18;72.32;99126.53;4940212;28;103219;-70
2024/04/14 06:13:48;;;;;;;12.70;4.50;;;;;;;13.23;72.04;99127.69;4938537;28;103184;-73
2024/04/14 06:16:14;;;;;;;7.30;4.57;;;;;;;13.09;74.04;99131.06;4955821;28;103438;-70
2024/04/14 06:18:45;;;;;;;10.75;5.00;;;;;;;13.18;71.22;99132.69;4955879;28;103189;-70
2024/04/14 06:21:10;;;;;;;9.63;4.85;;;;;;;13.19;73.06;99133.50;4956082;28;103108;-71
2024/04/14 06:23:37;;;;;;;6.80;3.90;;;;;;;13.61;71.64;99137.59;4927865;28;103150;-70
2024/04/14 06:26:04;;;;;;;5.80;4.10;;;;;;;13.70;71.35;99141.88;4954829;28;105352;-70
2024/04/14 06:28:33;;;;;;;7.45;4.00;;;;;;;13.99;70.38;99135.00;4939599;28;103392;-70
2024/04/14 06:30:59;;;;;;;6.35;3.53;;;;;;;14.20;69.63;99141.47;4940784;28;102861;-70
2024/04/14 06:33:25;;;;;;;8.95;3.33;;;;;;;14.39;69.16;99130.28;4938139;28;104544;-70
2024/04/14 06:35:51;;;;;;;8.50;3.60;;;;;;;14.50;68.05;99130.84;4954485;28;103174;-71
2024/04/14 06:38:19;;;;;;;11.20;4.45;;;;;;;14.64;66.48;99124.72;4956451;28;103250;-70
2024/04/14 06:40:45;;;;;;;8.82;4.28;;;;;;;14.78;66.62;99127.56;4957157;28;102945;-70
2024/04/14 06:43:12;;;;;;;9.05;3.55;;;;;;;14.97;65.65;99132.31;4950079;28;102727;-70
2024/04/14 06:45:40;;;;;;;5.47;3.13;;;;;;;15.09;65.28;99124.69;4952543;28;103279;-70
2024/04/14 06:48:06;;;;;;;7.35;3.72;;;;;;;15.16;65.08;99130.94;4955507;28;107751;-70
2024/04/14 06:50:34;;;;;;;9.93;4.38;;;;;;;15.01;63.81;99128.31;4958705;28;104046;-70
2024/04/14 06:53:00;;;;;;;6.93;3.90;;;;;;;15.44;64.56;99132.06;4937878;28;102968;-75
2024/04/14 06:55:26;;;;;;;6.70;3.33;;;;;;;15.60;63.47;99126.47;4955444;28;103324;-74
2024/04/14 06:57:58;;;;;;;10.63;4.32;;;;;;;15.46;62.29;99128.19;4956928;28;105155;-74
2024/04/14 07:00:23;;;;;;;8.77;4.03;;;;;;;15.50;62.08;99139.31;4958991;28;102871;-75
2024/04/14 07:02:49;;;;;;;9.02;3.78;;;;;;;15.87;61.63;99126.75;4942002;28;103048;-75
2024/04/14 07:05:15;;;;;;;8.52;3.40;;;;;;;15.95;61.85;99133.81;4959604;28;104231;-74
2024/04/14 07:07:41;;;;;;;9.27;3.72;;;;;;;15.86;61.34;99128.59;4957605;28;103345;-74
2024/04/14 07:10:09;;;;;;;8.18;4.20;;;;;;;15.87;62.68;99129.44;4958708;28;102756;-74
2024/04/14 07:12:35;;;;;;;6.75;3.40;;;;;;;16.16;61.44;99125.75;4954961;28;102885;-75
2024/04/14 07:15:03;;;;;;;6.82;4.00;;;;;;;16.27;62.41;99127.09;4936714;28;106274;-74
2024/04/14 07:17:29;;;;;;;5.10;3.00;;;;;;;16.59;61.67;99132.84;4960869;28;104441;-74
2024/04/14 07:19:55;;;;;;;10.20;4.00;;;;;;;16.82;61.26;99129.03;4941673;28;102944;-73
2024/04/14 07:22:21;;;;;;;7.28;4.00;;;;;;;16.54;61.10;99124.59;4963822;28;103064;-77
2024/04/14 07:24:49;;;;;;;10.35;4.72;;;;;;;16.57;62.12;99127.69;4942205;28;103930;-75
2024/04/14 07:27:15;;;;;;;7.68;3.65;;;;;;;16.80;60.41;99131.13;4940470;28;105536;-74
2024/04/14 07:29:43;;;;;;;7.85;3.13;;;;;;;17.18;59.41;99126.16;4958020;28;103387;-73
2024/04/14 07:32:09;;;;;;;7.03;3.63;;;;;;;17.60;58.83;99125.25;4962052;28;102685;-73
2024/04/14 07:34:34;;;;;;;5.43;3.13;;;;;;;17.72;57.52;99131.63;4959033;28;104017;-73
2024/04/14 07:37:02;;;;;;;6.10;3.03;;;;;;;17.60;56.11;99126.06;4941136;28;105717;-74
2024/04/14 07:39:28;;;;;;;6.35;2.88;;;;;;;17.99;56.14;99126.34;4958075;28;103110;-77
2024/04/14 07:41:54;;;;;;;6.15;2.90;;;;;;;18.44;55.45;99120.31;4954132;28;102963;-74
2024/04/14 07:44:22;;;;;;;9.18;3.63;;;;;;;18.38;55.77;99120.13;4955396;28;103169;-74
2024/04/14 07:46:49;;;;;;;6.22;3.40;;;;;;;18.06;56.44;99122.63;4956811;28;103772;-74
2024/04/14 07:49:15;;;;;;;7.32;2.97;;;;;;;18.75;56.11;99110.75;4941566;28;102952;-74
2024/04/14 07:51:41;;;;;;;8.77;3.28;;;;;;;19.09;54.76;99111.47;4958057;28;102866;-74
2024/04/14 07:54:06;;;;;;;5.65;2.55;;;;;;;19.61;53.88;99112.22;4958215;28;103300;-74
2024/04/14 07:56:32;;;;;;;6.85;2.47;;;;;;;19.64;53.17;99114.47;4947260;28;106801;-75
2024/04/14 07:59:01;;;;;;;4.97;2.60;;;;;;;20.15;52.79;99117.22;4954504;28;105128;-77
2024/04/14 08:01:27;;;;;;;5.65;2.65;;;;;;;20.07;52.38;99114.81;4961519;28;102797;-74
2024/04/14 08:03:53;;;;;;;6.28;2.45;;;;;;;20.28;51.36;99108.19;4954744;28;103477;-76
2024/04/14 08:06:19;;;;;;;7.10;2.40;;;;;;;20.74;51.66;99123.09;4960215;28;105046;-75
2024/04/14 08:08:44;;;;;;;5.35;2.63;;;;;;;20.87;51.47;99116.72;4952534;28;103089;-72
2024/04/14 08:11:13;;;;;;;6.00;2.72;;;;;;;21.11;49.93;99116.84;4946611;28;102990;-75
2024/04/14 08:13:38;;;;;;;12.15;2.45;;;;;;;20.87;50.25;99117.53;4955158;28;103284;-75
2024/04/14 08:16:07;;;;;;;8.80;2.60;;;;;;;21.48;48.83;99109.47;4942485;28;102814;-74
2024/04/14 08:18:32;;;;;;;7.13;2.70;;;;;;;21.59;49.37;99107.09;4971976;28;102937;-76
2024/04/14 08:20:59;;;;;;;5.75;2.38;;;;;;;21.74;48.54;99112.06;4962661;28;102887;-84
2024/04/14 08:23:26;;;;;;;6.35;2.35;;;;;;;22.17;48.61;99119.03;4969633;28;103907;-75
2024/04/14 08:25:51;;;;;;;6.45;2.50;;;;;;;21.95;46.76;99116.91;4957578;28;103197;-83
2024/04/14 08:28:18;;;;;;;5.65;2.30;;;;;;;22.15;47.37;99121.97;4950716;28;104127;-74
2024/04/14 08:30:45;;;;;;;6.32;2.20;;;;;;;22.11;46.70;99115.38;4938592;28;103012;-77
2024/04/14 08:33:11;;;;;;;4.07;2.08;;;;;;;22.16;46.35;99117.41;4955786;28;106368;-76
2024/04/14 08:35:36;;;;;;;6.47;2.45;;;;;;;21.80;46.23;99113.81;4965382;28;103885;-85
2024/04/14 08:38:02;;;;;;;6.32;1.85;;;;;;;22.59;45.65;99121.63;4938931;28;102746;-83
2024/04/14 08:40:28;;;;;;;7.93;1.83;;;;;;;23.43;43.45;99108.75;4960955;28;104112;-79
2024/04/14 08:42:54;;;;;;;3.92;2.00;;;;;;;23.16;44.63;99118.25;4951451;28;103445;-76
2024/04/14 08:45:26;;;;;;;5.80;2.42;;;;;;;22.76;43.88;99113.63;4921857;28;104472;-75
2024/04/14 08:47:53;;;;;;;4.65;1.80;;;;;;;23.82;44.40;99106.16;4951476;28;102818;-81
2024/04/14 08:50:23;;;;;;;5.93;1.80;;;;;;;23.63;43.18;99103.69;4944342;28;102857;-79
2024/04/14 08:52:49;;;;;;;5.78;1.90;;;;;;;23.12;44.36;99113.53;4937200;28;107048;-77
2024/04/14 08:55:16;;;;;;;2.92;1.73;;;;;;;23.45;43.36;99112.00;4948215;28;106039;-76
2024/04/14 08:57:42;;;;;;;7.20;1.92;;;;;;;23.56;44.12;99113.84;4938612;28;103262;-75
2024/04/14 09:00:13;;;;;;;4.20;1.83;;;;;;;23.59;42.76;99104.41;4957785;28;102833;-74
2024/04/14 09:02:42;;;;;;;9.48;1.80;;;;;;;23.95;41.99;99105.88;4926638;28;105126;-74
2024/04/14 09:05:12;;;;;;;5.20;1.30;;;;;;;24.23;43.23;99106.03;4928083;28;110835;-74
2024/04/14 09:07:41;;;;;;;7.78;1.85;;;;;;;22.42;44.96;99112.63;4928437;28;103429;-74
2024/04/14 09:10:07;;;;;;;3.45;1.65;;;;;;;23.41;44.10;99110.84;4940365;28;102829;-74
2024/04/14 09:12:33;;;;;;;3.50;1.35;;;;;;;23.59;44.20;99112.53;4938961;28;104741;-76
2024/04/14 09:15:01;;;;;;;4.22;1.63;;;;;;;23.45;44.04;99112.00;4966500;28;106214;-76
2024/04/14 09:17:27;;;;;;;5.65;1.67;;;;;;;23.71;43.70;99110.56;4954495;28;103798;-75
2024/04/14 09:19:53;;;;;;;6.13;2.00;;;;;;;24.37;42.81;99103.75;4956514;28;103733;-76
2024/04/14 09:22:19;;;;;;;15.63;1.60;;;;;;;23.97;45.38;99109.16;4960728;28;104345;-78
2024/04/14 09:24:44;;;;;;;5.95;1.70;;;;;;;24.65;43.20;99111.78;4955889;28;103826;-81
2024/04/14 09:27:10;;;;;;;3.25;1.65;;;;;;;24.79;43.15;99106.00;4957030;28;102745;-78
2024/04/14 09:29:36;;;;;;;2.00;1.50;;;;;;;23.92;44.27;99106.38;4941090;28;102847;-77
2024/04/14 09:32:03;;;;;;;2.47;1.23;;;;;;;24.52;44.60;99105.88;4958689;28;103590;-76
2024/04/14 09:34:30;;;;;;;5.75;2.15;;;;;;;23.41;46.27;99100.88;4940874;28;103814;-76
2024/04/14 09:36:57;;;;;;;8.95;1.85;;;;;;;24.26;46.34;99100.09;4931249;28;103373;-75
2024/04/14 09:39:26;;;;;;;5.47;1.73;;;;;;;23.74;45.17;99103.84;4958293;28;103593;-74
2024/04/14 09:41:55;;;;;;;5.53;1.90;;;;;;;23.92;45.24;99103.66;4951005;28;108267;-75
2024/04/14 09:44:21;;;;;;;3.92;1.70;;;;;;;23.58;46.05;99106.31;4966221;28;105501;-73
2024/04/14 09:46:49;;;;;;;3.65;1.83;;;;;;;22.98;48.19;99105.72;4954944;28;102850;-75
2024/04/14 09:49:17;;;;;;;6.85;1.95;;;;;;;23.64;46.62;99094.50;4940246;28;104057;-75
2024/04/14 09:51:45;;;;;;;3.92;1.70;;;;;;;23.77;45.37;99098.78;4952007;28;103310;-76
2024/04/14 09:54:14;;;;;;;5.43;1.98;;;;;;;24.25;45.17;99087.63;4951519;28;103946;-74
2024/04/14 09:56:45;;;;;;;4.03;1.70;;;;;;;25.01;44.34;99092.47;4951937;28;103303;-75
2024/04/14 09:59:10;;;;;;;5.90;2.00;;;;;;;23.42;46.63;99096.28;4969597;28;103508;-73
2024/04/14 10:01:39;;;;;;;9.93;1.80;;;;;;;23.71;44.56;99091.63;4938880;28;103122;-74
2024/04/14 10:04:07;;;;;;;4.22;1.75;;;;;;;23.99;44.67;99098.09;4955015;28;103297;-74
2024/04/14 10:06:36;;;;;;;4.63;1.65;;;;;;;23.92;45.85;99090.16;4951051;28;103313;-75
2024/04/14 10:09:02;;;;;;;5.05;2.03;;;;;;;22.75;47.10;99100.38;4935825;28;102791;-75
2024/04/14 10:11:30;;;;;;;5.40;1.60;;;;;;;23.75;46.49;99087.41;4939472;28;105560;-77
2024/04/14 10:13:58;;;;;;;5.85;2.05;;;;;;;23.91;46.62;99083.09;4957847;28;105838;-74
2024/04/14 10:16:26;;;;;;;4.20;1.85;;;;;;;23.16;46.47;99082.28;4953208;28;102851;-79
2024/04/14 10:18:52;;;;;;;5.53;1.70;;;;;;;24.40;44.70;99073.50;4953698;28;102953;-75
2024/04/14 10:21:21;;;;;;;4.55;1.77;;;;;;;23.94;46.08;99074.47;4952640;28;105573;-77
2024/04/14 10:23:52;;;;;;;7.20;2.05;;;;;;;24.32;43.38;99072.84;4939556;28;103933;-82
2024/04/14 10:26:19;;;;;;;4.18;1.60;;;;;;;23.79;45.96;99074.19;4937653;28;102828;-78
2024/04/14 10:29:08;;;;;;;5.50;1.88;;;;;;;23.97;45.14;99070.44;4942684;28;103797;-79
2024/04/14 10:31:34;;;;;;;4.10;1.90;;;;;;;23.63;45.43;99071.25;4952776;28;103116;-75
2024/04/14 10:34:08;;;;;;;3.35;1.80;;;;;;;23.79;45.53;99069.63;4939296;28;105432;-75
2024/04/14 10:36:36;;;;;;;4.25;1.70;;;;;;;23.60;45.54;99060.91;4933250;28;103176;-76
2024/04/14 10:39:04;;;;;;;4.28;2.00;;;;;;;22.79;47.72;99067.22;4941452;28;102870;-74
2024/04/14 10:41:35;;;;;;;4.80;2.13;;;;;;;22.83;48.45;99057.63;4959667;28;106198;-72
2024/04/14 10:44:00;;;;;;;3.13;1.60;;;;;;;23.44;46.57;99057.13;4953417;28;106132;-73
2024/04/14 10:46:26;;;;;;;4.55;1.90;;;;;;;23.48;46.62;99054.78;4952879;28;103261;-73
2024/04/14 10:48:52;;;;;;;4.80;1.85;;;;;;;23.07;46.46;99051.28;4951165;28;102887;-72
2024/04/14 10:51:18;;;;;;;4.85;1.65;;;;;;;23.22;45.64;99053.50;4950137;28;103252;-71
2024/04/14 10:53:44;;;;;;;4.18;1.63;;;;;;;24.16;45.24;99046.66;4963933;28;103255;-73
2024/04/14 10:56:09;;;;;;;8.25;1.80;;;;;;;24.73;43.95;99045.53;4949413;28;103711;-73
2024/04/14 10:58:39;;;;;;;5.95;1.90;;;;;;;23.59;44.48;99043.03;4949801;28;106455;-73
2024/04/14 11:01:04;;;;;;;7.40;1.90;;;;;;;23.40;45.70;99044.34;4936294;28;106621;-74
2024/04/14 11:03:30;;;;;;;5.22;2.03;;;;;;;23.48;44.55;99030.44;4938485;28;106362;-76
2024/04/14 11:05:57;;;;;;;9.25;1.77;;;;;;;23.64;45.11;99034.22;4953774;28;102893;-79
2024/04/14 11:08:24;;;;;;;3.00;1.50;;;;;;;23.55;46.32;99031.09;4952456;28;102877;-76
2024/04/14 11:10:52;;;;;;;7.45;1.92;;;;;;;23.75;46.01;99030.63;4950256;28;107878;-77
2024/04/14 11:13:21;;;;;;;7.65;1.77;;;;;;;24.19;44.91;99023.69;4949421;28;103316;-77
2024/04/14 11:15:47;;;;;;;8.35;1.73;;;;;;;23.57;44.69;99026.28;4951920;28;104363;-75
2024/04/14 11:18:13;;;;;;;4.38;1.65;;;;;;;23.62;45.31;99022.81;4935129;28;102786;-75
2024/04/14 11:20:50;;;;;;;4.93;1.65;;;;;;;23.76;44.63;99015.19;4952857;28;103291;-79